createdAt,value
2022-08-05T00:00:48.411Z,25.40
2022-08-05T00:06:04.736Z,25.34
2022-08-05T00:11:20.498Z,25.26
2022-08-05T00:16:36.254Z,25.24
2022-08-05T00:21:53.990Z,25.13
2022-08-05T00:26:57.047Z,24.95
2022-08-05T00:32:10.495Z,24.93
2022-08-05T00:37:15.306Z,24.87
2022-08-05T00:42:32.252Z,24.86
2022-08-05T00:47:56.783Z,24.85
2022-08-05T00:52:55.551Z,24.91
2022-08-05T00:57:58.907Z,25.01
2022-08-05T01:03:00.675Z,25.24
2022-08-05T01:08:31.645Z,25.07
2022-08-05T01:13:58.823Z,25.09
2022-08-05T01:19:11.046Z,25.32
2022-08-05T01:24:52.142Z,25.49
2022-08-05T01:30:00.074Z,25.60
2022-08-05T01:35:10.342Z,25.73
2022-08-05T01:40:17.914Z,25.81
2022-08-05T01:45:21.703Z,25.87
2022-08-05T01:50:32.557Z,25.85
2022-08-05T01:55:36.479Z,25.79
2022-08-05T02:00:42.623Z,25.71
2022-08-05T02:05:46.386Z,25.70
2022-08-05T02:10:53.971Z,25.59
2022-08-05T02:16:04.021Z,25.53
2022-08-05T02:21:14.925Z,25.56
2022-08-05T02:26:22.386Z,25.56
2022-08-05T02:31:28.430Z,25.50
2022-08-05T02:36:39.177Z,25.39
2022-08-05T02:41:58.125Z,25.38
2022-08-05T02:47:09.077Z,25.24
2022-08-05T02:52:29.589Z,25.15
2022-08-05T02:58:10.222Z,25.19
2022-08-05T03:02:55.756Z,25.28
2022-08-05T03:08:06.828Z,25.20
2022-08-05T03:13:17.845Z,24.97
2022-08-05T03:18:29.889Z,24.75
2022-08-05T03:23:32.599Z,24.84
2022-08-05T03:28:36.427Z,24.98
2022-08-05T03:33:51.333Z,25.10
2022-08-05T03:38:54.882Z,25.23
2022-08-05T03:44:08.074Z,25.28
2022-08-05T03:49:11.567Z,25.28
2022-08-05T03:55:50.066Z,25.22
2022-08-05T04:00:01.739Z,25.06
2022-08-05T04:05:05.696Z,25.10
2022-08-05T04:10:11.419Z,25.13
2022-08-05T04:15:19.048Z,25.17
2022-08-05T04:20:25.840Z,25.24
2022-08-05T04:25:56.428Z,25.23
2022-08-05T04:30:49.140Z,25.14
2022-08-05T04:36:15.829Z,25.10
2022-08-05T04:41:13.002Z,25.07
2022-08-05T04:46:15.113Z,25.29
2022-08-05T04:51:30.346Z,25.60
2022-08-05T04:56:35.162Z,25.75
2022-08-05T05:02:07.177Z,27.57
2022-08-05T05:07:00.041Z,28.09
2022-08-05T05:12:03.143Z,27.95
2022-08-05T05:17:07.452Z,27.98
2022-08-05T05:22:22.628Z,28.85
2022-08-05T05:27:45.684Z,29.09
2022-08-05T05:32:50.485Z,27.87
2022-08-05T05:38:00.380Z,26.82
2022-08-05T05:43:03.811Z,26.30
2022-08-05T05:48:08.808Z,26.05
2022-08-05T05:53:21.578Z,25.91
2022-08-05T05:58:31.501Z,25.99
2022-08-05T06:03:53.808Z,26.15
2022-08-05T06:08:55.205Z,26.46
2022-08-05T06:13:57.008Z,26.69
2022-08-05T06:19:00.008Z,26.98
2022-08-05T06:24:02.537Z,27.35
2022-08-05T06:29:25.524Z,28.67
2022-08-05T06:34:27.713Z,33.43
2022-08-05T06:39:29.317Z,36.65
2022-08-05T06:44:32.827Z,38.96
2022-08-05T06:50:00.848Z,38.99
2022-08-05T06:54:55.697Z,41.09
2022-08-05T06:59:58.338Z,42.29
2022-08-05T07:04:59.870Z,43.53
2022-08-05T07:10:03.525Z,41.19
2022-08-05T07:15:34.372Z,42.27
2022-08-05T07:20:45.696Z,43.56
2022-08-05T07:25:55.260Z,44.80
2022-08-05T07:30:57.992Z,44.56
2022-08-05T07:36:19.641Z,45.91
2022-08-05T07:42:07.743Z,47.18
2022-08-05T07:46:48.180Z,45.22
2022-08-05T07:51:54.629Z,43.64
2022-08-05T07:57:13.772Z,41.09
2022-08-05T08:02:18.294Z,36.30
2022-08-05T08:07:22.784Z,39.17
2022-08-05T08:12:33.410Z,42.30
2022-08-05T08:17:43.984Z,43.97
2022-08-05T08:22:56.956Z,44.26
2022-08-05T08:27:59.547Z,43.49
2022-08-05T08:33:04.372Z,44.11
2022-08-05T08:38:06.304Z,45.38
2022-08-05T08:44:56.517Z,45.80
2022-08-05T08:49:03.031Z,43.70
2022-08-05T08:53:58.068Z,44.59
2022-08-05T08:59:00.704Z,43.83
2022-08-05T09:04:02.184Z,43.29
2022-08-05T09:09:03.878Z,42.50
2022-08-05T09:14:54.520Z,42.67
2022-08-05T09:19:27.985Z,41.90
2022-08-05T09:24:38.503Z,42.51
2022-08-05T09:29:47.581Z,43.17
2022-08-05T09:34:55.055Z,44.07
2022-08-05T09:39:56.618Z,42.95
2022-08-05T09:46:05.080Z,42.50
2022-08-05T09:50:38.585Z,42.62
2022-08-05T09:55:58.237Z,42.58
2022-08-05T10:01:13.456Z,42.45
2022-08-05T10:06:20.659Z,42.58
2022-08-05T10:11:22.823Z,42.70
2022-08-05T10:16:30.248Z,42.59
2022-08-05T10:21:35.331Z,42.32
2022-08-05T10:26:51.578Z,42.26
2022-08-05T10:32:53.301Z,42.30
2022-08-05T10:37:15.946Z,42.23
2022-08-05T10:42:33.688Z,41.83
2022-08-05T10:47:41.048Z,40.89
2022-08-05T10:52:58.569Z,40.02
2022-08-05T10:58:11.348Z,39.99
2022-08-05T11:03:26.006Z,39.65
2022-08-05T11:08:37.327Z,39.09
2022-08-05T11:13:54.876Z,38.59
2022-08-05T11:20:16.826Z,38.88
2022-08-05T11:26:05.322Z,38.87
2022-08-05T11:30:58.227Z,38.38
2022-08-05T11:36:02.805Z,38.07
2022-08-05T11:41:57.849Z,38.01
2022-08-05T11:46:58.070Z,37.95
2022-08-05T11:52:00.565Z,37.88
2022-08-05T11:57:07.699Z,37.69
2022-08-05T12:02:30.488Z,37.64
2022-08-05T12:08:08.074Z,37.77
2022-08-05T12:13:04.228Z,37.48
2022-08-05T12:18:39.703Z,37.35
2022-08-05T12:23:54.483Z,37.18
2022-08-05T12:28:55.935Z,36.84
2022-08-05T12:33:58.265Z,36.33
2022-08-05T12:39:00.333Z,36.66
2022-08-05T12:44:05.161Z,36.87
2022-08-05T12:49:14.951Z,37.06
2022-08-05T12:54:23.342Z,37.42
2022-08-05T12:59:46.697Z,37.84
2022-08-05T13:04:52.555Z,37.39
2022-08-05T13:09:58.919Z,36.75
2022-08-05T13:15:07.486Z,36.30
2022-08-05T13:20:16.505Z,36.12
2022-08-05T13:25:21.909Z,36.11
2022-08-05T13:30:35.699Z,36.08
2022-08-05T13:35:47.102Z,35.93
2022-08-05T13:40:53.180Z,35.85
2022-08-05T13:45:54.696Z,35.67
2022-08-05T13:51:05.474Z,35.62
2022-08-05T13:56:09.574Z,35.69
2022-08-05T14:01:21.956Z,35.54
2022-08-05T14:06:29.056Z,35.09
2022-08-05T14:11:31.359Z,34.67
2022-08-05T14:16:33.249Z,34.72
2022-08-05T14:22:10.387Z,34.50
2022-08-05T14:27:17.625Z,34.21
2022-08-05T14:32:26.844Z,33.86
2022-08-05T14:37:44.867Z,33.61
2022-08-05T14:42:49.690Z,33.35
2022-08-05T14:48:03.318Z,33.41
2022-08-05T14:53:07.629Z,33.69
2022-08-05T14:58:11.622Z,33.66
2022-08-05T15:03:14.006Z,33.78
2022-08-05T15:08:38.065Z,33.98
2022-08-05T15:13:46.299Z,33.88
2022-08-05T15:18:51.731Z,33.48
2022-08-05T15:23:54.040Z,32.88
2022-08-05T15:28:55.488Z,32.58
2022-08-05T15:34:18.593Z,32.39
2022-08-05T15:41:04.090Z,32.06
2022-08-05T15:44:44.243Z,31.92
2022-08-05T15:49:56.729Z,31.86
2022-08-05T15:55:00.526Z,31.78
2022-08-05T16:00:08.057Z,31.64
2022-08-05T16:05:09.789Z,31.52
2022-08-05T16:10:12.920Z,31.44
2022-08-05T16:15:18.364Z,31.36
2022-08-05T16:20:20.402Z,31.13
2022-08-05T16:25:21.842Z,30.94
2022-08-05T16:30:36.207Z,30.86
2022-08-05T16:35:42.381Z,30.79
2022-08-05T16:40:51.761Z,30.69
2022-08-05T16:46:03.727Z,30.41
2022-08-05T16:51:10.865Z,29.81
2022-08-05T16:56:12.590Z,29.21
2022-08-05T17:01:14.500Z,28.81
2022-08-05T17:06:16.545Z,28.59
2022-08-05T17:11:18.250Z,28.53
2022-08-05T17:16:32.466Z,28.39
2022-08-05T17:21:36.715Z,27.91
2022-08-05T17:26:39.110Z,27.58
2022-08-05T17:31:58.304Z,27.28
2022-08-05T17:37:00.707Z,27.01
2022-08-05T17:42:19.628Z,26.92
2022-08-05T17:47:24.766Z,26.80
2022-08-05T17:52:27.910Z,26.67
2022-08-05T17:57:29.993Z,26.50
2022-08-05T18:02:34.187Z,26.36
2022-08-05T18:07:41.582Z,26.13
2022-08-05T18:12:43.613Z,25.93
2022-08-05T18:18:00.240Z,25.66
2022-08-05T18:23:11.965Z,25.60
2022-08-05T18:28:16.168Z,25.61
2022-08-05T18:33:23.112Z,25.52
2022-08-05T18:38:26.019Z,25.26
2022-08-05T18:43:28.063Z,25.15
2022-08-05T18:48:33.531Z,25.08
2022-08-05T18:53:34.991Z,25.00
2022-08-05T18:58:47.280Z,24.95
2022-08-05T19:03:53.025Z,24.97
2022-08-05T19:08:57.229Z,24.94
2022-08-05T19:14:01.031Z,24.81
2022-08-05T19:19:06.669Z,24.70
2022-08-05T19:24:13.896Z,24.70
2022-08-05T19:29:15.365Z,24.67
2022-08-05T19:34:20.658Z,24.64
2022-08-05T19:39:23.430Z,24.52
2022-08-05T19:44:30.266Z,24.47
2022-08-05T19:49:31.732Z,24.43
2022-08-05T19:54:34.647Z,24.31
2022-08-05T19:59:55.960Z,24.32
2022-08-05T20:05:00.056Z,24.38
2022-08-05T20:10:04.832Z,24.37
2022-08-05T20:15:13.810Z,24.38
2022-08-05T20:20:15.571Z,24.40
2022-08-05T20:25:17.073Z,24.37
2022-08-05T20:30:19.784Z,24.48
2022-08-05T20:35:21.443Z,24.51
2022-08-05T20:40:23.467Z,24.41
2022-08-05T20:45:25.083Z,24.29
2022-08-05T20:50:46.895Z,24.29
2022-08-05T20:55:56.767Z,24.18
2022-08-05T21:01:09.910Z,24.16
2022-08-05T21:06:27.673Z,24.19
2022-08-05T21:12:10.797Z,24.20
2022-08-05T21:16:51.802Z,24.20
2022-08-05T21:21:53.212Z,24.22
2022-08-05T21:26:58.485Z,24.06
2022-08-05T21:32:02.368Z,23.86
2022-08-05T21:37:04.851Z,23.71
2022-08-05T21:42:07.016Z,23.66
2022-08-05T21:47:55.018Z,23.63
2022-08-05T21:52:49.866Z,23.62
2022-08-05T21:57:51.796Z,23.67
2022-08-05T22:02:55.097Z,23.67
2022-08-05T22:07:59.259Z,23.70
2022-08-05T22:13:08.640Z,23.67
2022-08-05T22:18:12.251Z,23.65
2022-08-05T22:24:00.905Z,23.59
2022-08-05T22:28:55.713Z,23.48
2022-08-05T22:34:01.210Z,23.45
2022-08-05T22:39:09.117Z,23.45
2022-08-05T22:44:12.044Z,23.44
2022-08-05T22:50:17.309Z,23.39
2022-08-05T22:54:36.532Z,23.26
2022-08-05T22:59:48.576Z,23.02
2022-08-05T23:04:53.518Z,22.78
2022-08-05T23:10:00.962Z,22.74
2022-08-05T23:15:08.854Z,22.81
2022-08-05T23:20:17.923Z,22.86
2022-08-05T23:25:53.093Z,22.78
2022-08-05T23:30:43.398Z,22.79
2022-08-05T23:35:45.125Z,22.75
2022-08-05T23:40:50.003Z,22.79
2022-08-05T23:45:51.975Z,22.83
2022-08-05T23:50:53.452Z,22.80
2022-08-05T23:55:54.951Z,22.80
